Time;durP1;ratioP1;P1;durP2;ratioP2;P2;SDS_P1;SDS_P2;PMS_P1;PMS_P2;Temp;Humidity;BMP_temperature;BMP_pressure;BME280_temperature;BME280_humidity;BME280_pressure;Samples;Min_cycle;Max_cycle;Signal;HPM_P1;HPM_P2
2022/01/15 00:00:06;;;;;;;;;130.50;113.25;;;;;3.36;81.74;102838.25;5069879;28;45487;-72
2022/01/15 00:02:31;;;;;;;;;131.00;103.00;;;;;3.36;81.95;102837.38;5044265;28;45513;-72
2022/01/15 00:04:56;;;;;;;;;145.75;117.75;;;;;3.33;81.99;102832.97;5058830;28;45392;-72
2022/01/15 00:07:22;;;;;;;;;122.67;103.00;;;;;3.32;81.90;102826.03;5059345;28;45320;-72
2022/01/15 00:09:50;;;;;;;;;133.33;105.00;;;;;3.31;82.24;102821.66;5058538;28;45320;-72
2022/01/15 00:12:15;;;;;;;;;126.50;111.50;;;;;3.22;82.26;102813.69;5069264;28;47225;-72
2022/01/15 00:14:42;;;;;;;;;136.00;113.00;;;;;3.29;82.21;102825.06;5058222;28;45574;-72
2022/01/15 00:17:15;;;;;;;;;130.50;101.50;;;;;3.26;82.54;102822.44;5056189;28;45589;-72
2022/01/15 00:19:42;;;;;;;;;148.50;120.75;;;;;3.26;82.01;102830.22;5058714;28;45500;-72
2022/01/15 00:22:15;;;;;;;;;129.50;111.00;;;;;3.25;82.96;102823.28;5060369;28;46313;-72
2022/01/15 00:24:41;;;;;;;;;140.25;112.75;;;;;3.19;82.63;102821.44;5059979;28;45511;-72
2022/01/15 00:27:07;;;;;;;;;144.50;113.50;;;;;3.24;82.68;102824.13;5056434;28;45476;-72
2022/01/15 00:29:34;;;;;;;;;133.75;108.25;;;;;3.19;82.37;102813.63;5056234;28;45346;-72
2022/01/15 00:32:00;;;;;;;;;147.50;113.25;;;;;3.21;82.51;102814.53;5054939;28;46407;-72
2022/01/15 00:34:27;;;;;;;;;139.25;114.25;;;;;3.19;83.10;102813.63;5055505;28;45432;-72
2022/01/15 00:36:52;;;;;;;;;144.00;114.75;;;;;3.16;82.90;102810.97;5053767;28;45765;-72
2022/01/15 00:39:18;;;;;;;;;141.75;123.50;;;;;3.19;82.71;102816.22;5047146;28;45349;-71
2022/01/15 00:41:43;;;;;;;;;129.25;99.75;;;;;3.18;82.65;102813.59;5053214;28;46263;-72
2022/01/15 00:44:09;;;;;;;;;130.25;109.00;;;;;3.16;82.57;102808.38;5054800;28;45577;-72
2022/01/15 00:46:34;;;;;;;;;142.25;111.25;;;;;3.10;82.59;102801.31;5053532;28;45409;-72
2022/01/15 00:48:59;;;;;;;;;143.75;113.75;;;;;3.11;82.53;102805.66;5054937;28;45704;-72
2022/01/15 00:51:25;;;;;;;;;130.33;108.33;;;;;3.08;82.93;102795.22;5054192;28;53499;-72
2022/01/15 00:53:51;;;;;;;;;129.33;110.00;;;;;3.02;82.76;102800.28;5053398;28;45332;-72
2022/01/15 00:56:16;;;;;;;;;141.25;115.00;;;;;3.03;82.72;102802.03;5054683;28;45636;-72
2022/01/15 00:58:41;;;;;;;;;131.33;113.67;;;;;3.01;81.93;102801.13;5055592;28;45692;-72
2022/01/15 01:01:07;;;;;;;;;138.67;111.33;;;;;2.98;82.27;102805.41;5053025;28;46135;-72
2022/01/15 01:03:32;;;;;;;;;126.75;105.25;;;;;2.97;82.37;102803.59;5056048;28;45498;-72
2022/01/15 01:05:57;;;;;;;;;140.33;117.67;;;;;2.92;82.69;102797.44;5064846;28;45464;-72
2022/01/15 01:08:23;;;;;;;;;134.00;110.67;;;;;2.92;83.07;102800.03;5065394;28;45447;-72
2022/01/15 01:10:56;;;;;;;;;136.00;115.50;;;;;2.91;82.77;102793.09;5061511;28;45487;-72
2022/01/15 01:20:00;;;;;;;;;122.75;105.00;;;;;2.89;82.58;102790.47;5052516;28;45622;-72
2022/01/15 01:24:18;;;;;;;;;125.00;108.00;;;;;2.82;83.15;102783.41;5054708;28;45486;-72
2022/01/15 01:26:54;;;;;;;;;130.00;110.50;;;;;2.81;83.06;102782.50;5050004;28;45706;-72
2022/01/15 01:30:08;;;;;;;;;127.75;107.50;;;;;2.81;82.94;102776.44;5059592;28;45474;-71
2022/01/15 01:32:28;;;;;;;;;138.75;105.50;;;;;2.74;82.76;102758.97;5058829;28;46105;-72
2022/01/15 01:34:54;;;;;;;;;137.75;115.25;;;;;2.80;82.63;102764.31;5055408;28;45844;-72
2022/01/15 01:37:30;;;;;;;;;131.50;115.75;;;;;2.75;83.09;102772.00;5056027;28;45959;-71
2022/01/15 01:40:13;;;;;;;;;142.00;113.75;;;;;2.76;83.41;102759.88;5057295;28;45760;-71
2022/01/15 01:42:43;;;;;;;;;122.00;106.00;;;;;2.74;83.57;102753.78;5061332;28;47120;-72
2022/01/15 01:45:14;;;;;;;;;126.25;103.50;;;;;2.75;83.23;102760.72;5050443;28;45922;-71
2022/01/15 01:47:42;;;;;;;;;132.00;104.25;;;;;2.74;83.11;102752.06;5058262;28;45502;-71
2022/01/15 01:50:13;;;;;;;;;130.00;111.00;;;;;2.74;82.87;102752.06;5053301;28;45537;-72
2022/01/15 01:52:40;;;;;;;;;123.00;106.00;;;;;2.71;83.34;102744.19;5052106;28;46492;-72
2022/01/15 01:55:06;;;;;;;;;133.50;109.00;;;;;2.70;82.88;102744.19;5054264;28;45544;-72
2022/01/15 01:57:32;;;;;;;;;126.25;106.50;;;;;2.60;83.18;102735.31;5056739;28;45504;-72
2022/01/15 01:59:57;;;;;;;;;115.75;98.00;;;;;2.67;82.92;102752.78;5050532;28;45640;-72
2022/01/15 02:02:22;;;;;;;;;122.33;99.00;;;;;2.68;83.09;102757.13;5059270;28;45324;-72
2022/01/15 02:04:48;;;;;;;;;130.33;99.33;;;;;2.67;83.18;102755.38;5066774;28;45426;-72
2022/01/15 02:07:14;;;;;;;;;122.25;99.00;;;;;2.66;82.91;102743.22;5053658;28;45781;-72
2022/01/15 02:09:40;;;;;;;;;120.25;93.75;;;;;2.65;82.91;102746.66;5053350;28;45494;-72
2022/01/15 02:12:06;;;;;;;;;127.50;104.50;;;;;2.55;82.99;102730.00;5056267;28;47055;-72
2022/01/15 02:14:31;;;;;;;;;115.00;101.25;;;;;2.57;82.98;102730.94;5052217;28;45960;-72
2022/01/15 02:16:58;;;;;;;;;126.67;111.67;;;;;2.61;82.85;102729.31;5057037;28;45552;-72
2022/01/15 02:19:34;;;;;;;;;114.75;100.00;;;;;2.60;83.29;102732.72;5053711;28;45493;-72
2022/01/15 02:24:44;;;;;;;;;121.25;101.75;;;;;2.57;83.32;102730.06;5056191;28;46054;-72
2022/01/15 02:27:09;;;;;;;;;125.75;98.75;;;;;2.56;82.80;102734.38;5054907;28;45256;-72
2022/01/15 02:29:34;;;;;;;;;120.33;97.67;;;;;2.56;83.41;102730.91;5052297;28;45409;-71
2022/01/15 02:32:00;;;;;;;;;118.33;104.67;;;;;2.54;83.41;102730.00;5054522;28;46517;-72
2022/01/15 02:34:25;;;;;;;;;123.33;106.33;;;;;2.54;83.16;102717.00;5053281;28;45294;-71
2022/01/15 02:36:50;;;;;;;;;118.00;95.50;;;;;2.54;83.60;102730.84;5056710;28;45342;-72
2022/01/15 02:39:16;;;;;;;;;125.00;101.50;;;;;2.52;83.22;102729.97;5055736;28;45527;-72
2022/01/15 02:41:41;;;;;;;;;128.50;106.50;;;;;2.51;83.17;102724.75;5054918;28;46271;-72
2022/01/15 02:44:16;;;;;;;;;129.75;103.00;;;;;2.50;83.26;102728.16;5056165;28;45340;-71
2022/01/15 02:49:16;;;;;;;;;125.50;104.50;;;;;2.46;83.36;102723.78;5058648;28;45364;-71
2022/01/15 02:51:42;;;;;;;;;113.25;97.75;;;;;2.45;83.20;102716.81;5060000;28;45545;-72
2022/01/15 02:54:08;;;;;;;;;139.75;104.00;;;;;2.42;83.51;102711.56;5048934;28;45526;-72
2022/01/15 02:56:36;;;;;;;;;125.25;96.50;;;;;2.36;83.77;102704.53;5055561;28;45552;-71
2022/01/15 02:59:08;;;;;;;;;111.50;96.50;;;;;2.42;83.97;102712.44;5053595;28;45474;-71
2022/01/15 03:01:34;;;;;;;;;115.50;95.50;;;;;2.39;83.53;102698.50;5057840;28;45482;-71
2022/01/15 03:04:00;;;;;;;;;116.25;98.25;;;;;2.41;83.58;102705.50;5056005;28;45640;-71
2022/01/15 03:06:25;;;;;;;;;120.75;103.25;;;;;2.38;83.41;102699.34;5056029;28;45498;-71
2022/01/15 03:08:52;;;;;;;;;115.00;92.75;;;;;2.35;83.47;102695.88;5060100;28;47524;-71
2022/01/15 03:11:18;;;;;;;;;121.75;101.25;;;;;2.39;84.04;102701.09;5059571;28;45504;-71
2022/01/15 03:13:44;;;;;;;;;122.25;98.75;;;;;2.38;83.47;102697.63;5057299;28;45470;-71
2022/01/15 03:16:13;;;;;;;;;125.00;103.75;;;;;2.37;83.50;102695.88;5055462;28;45302;-71
2022/01/15 03:18:39;;;;;;;;;117.75;98.75;;;;;2.35;83.71;102698.47;5058582;28;45625;-71
2022/01/15 03:21:04;;;;;;;;;116.75;101.50;;;;;2.35;83.66;102695.00;5064915;28;45973;-70
2022/01/15 03:23:30;;;;;;;;;115.50;92.50;;;;;2.33;84.03;102681.97;5056640;28;45323;-71
2022/01/15 03:25:55;;;;;;;;;124.00;99.25;;;;;2.29;83.76;102682.72;5055974;28;45499;-71
2022/01/15 03:28:20;;;;;;;;;120.25;97.00;;;;;2.32;83.96;102687.13;5049470;28;45378;-71
2022/01/15 03:30:46;;;;;;;;;113.67;91.33;;;;;2.30;83.79;102679.31;5056124;28;46920;-71
2022/01/15 03:33:12;;;;;;;;;105.25;77.00;;;;;2.30;83.75;102671.53;5055160;28;45327;-71
2022/01/15 03:35:37;;;;;;;;;115.50;93.25;;;;;2.29;83.42;102677.53;5055178;28;46056;-71
2022/01/15 03:38:04;;;;;;;;;111.25;93.75;;;;;2.27;83.61;102668.84;5059097;28;45442;-71
2022/01/15 03:40:30;;;;;;;;;121.75;99.50;;;;;2.26;83.35;102669.72;5066709;28;46233;-71
2022/01/15 03:42:56;;;;;;;;;115.50;94.50;;;;;2.26;83.92;102659.31;5061624;28;45539;-71
2022/01/15 03:45:22;;;;;;;;;117.75;93.50;;;;;2.26;83.44;102669.72;5065050;27;45526;-71
2022/01/15 03:47:47;;;;;;;;;114.00;85.00;;;;;2.27;84.01;102666.25;5063328;28;45384;-71
2022/01/15 03:50:14;;;;;;;;;120.50;97.25;;;;;2.28;83.79;102668.00;5067481;27;45391;-71
2022/01/15 03:52:40;;;;;;;;;111.25;87.50;;;;;2.26;83.90;102654.13;5058071;28;45454;-71
2022/01/15 03:55:08;;;;;;;;;114.50;98.25;;;;;2.26;83.45;102661.06;5054318;28;45441;-71
2022/01/15 03:57:34;;;;;;;;;113.75;95.00;;;;;2.26;84.17;102648.94;5053978;28;45373;-71
2022/01/15 04:00:00;;;;;;;;;117.25;93.75;;;;;2.25;83.59;102654.13;5059877;28;46129;-71
2022/01/15 04:02:26;;;;;;;;;115.25;95.00;;;;;2.23;83.87;102645.41;5055936;28;45530;-70
2022/01/15 04:04:51;;;;;;;;;120.00;98.25;;;;;2.25;83.89;102648.94;5061101;28;45368;-71
2022/01/15 04:07:16;;;;;;;;;111.00;90.33;;;;;2.24;83.35;102661.00;5054608;28;45683;-71
2022/01/15 04:09:42;;;;;;;;;113.00;92.33;;;;;2.15;83.87;102632.28;5052567;28;45366;-71
2022/01/15 04:12:07;;;;;;;;;114.00;89.00;;;;;2.21;83.63;102642.78;5057172;28;45410;-71
2022/01/15 04:14:32;;;;;;;;;107.75;81.75;;;;;2.20;83.57;102635.84;5061376;28;45362;-71
2022/01/15 04:16:58;;;;;;;;;111.00;89.33;;;;;2.18;84.11;102628.88;5063207;28;45317;-71
2022/01/15 04:19:24;;;;;;;;;109.67;84.00;;;;;2.17;83.79;102630.59;5055862;28;50396;-71
2022/01/15 04:21:50;;;;;;;;;110.75;86.00;;;;;2.16;83.85;102635.75;5055022;28;45469;-70
2022/01/15 04:24:15;;;;;;;;;122.75;91.50;;;;;2.15;83.80;102634.00;5052519;28;45540;-71
2022/01/15 04:26:40;;;;;;;;;104.75;79.25;;;;;2.11;83.59;102625.25;5055043;28;45470;-71
2022/01/15 04:29:06;;;;;;;;;108.50;85.00;;;;;2.13;83.55;102623.56;5058174;28;46990;-71
2022/01/15 04:31:51;;;;;;;;;109.00;84.00;;;;;2.12;83.46;102620.94;5058241;28;45596;-71
2022/01/15 04:34:28;;;;;;;;;107.75;83.00;;;;;2.11;83.81;102622.69;5054521;28;45521;-71
2022/01/15 04:37:11;;;;;;;;;107.00;78.50;;;;;2.10;83.94;102618.34;5061275;28;45493;-71
2022/01/15 04:39:36;;;;;;;;;110.75;84.75;;;;;2.09;83.87;102619.19;5037929;28;47180;-71
2022/01/15 04:42:02;;;;;;;;;107.00;78.50;;;;;2.08;84.06;102612.22;5054096;28;45642;-71
2022/01/15 04:44:27;;;;;;;;;111.25;78.75;;;;;2.09;84.23;102616.59;5059329;28;45450;-71
2022/01/15 04:46:53;;;;;;;;;102.00;75.00;;;;;2.08;83.80;102614.81;5056091;28;45462;-71
2022/01/15 04:49:18;;;;;;;;;88.75;69.25;;;;;2.05;83.60;102607.84;5054836;28;46162;-71
2022/01/15 04:51:44;;;;;;;;;103.25;79.00;;;;;2.04;83.66;102606.13;5058423;28;45483;-71
2022/01/15 04:54:09;;;;;;;;;103.75;77.25;;;;;2.00;84.01;102591.31;5055334;28;49057;-71
2022/01/15 04:56:34;;;;;;;;;98.75;75.25;;;;;2.06;84.19;102604.41;5052044;28;45949;-71
2022/01/15 04:59:00;;;;;;;;;97.67;74.33;;;;;1.96;83.77;102578.25;5056010;28;45808;-71
2022/01/15 05:01:25;;;;;;;;;100.75;75.00;;;;;2.06;83.54;102598.34;5058190;28;45309;-71
2022/01/15 05:03:50;;;;;;;;;109.25;78.25;;;;;2.05;83.94;102597.47;5061029;28;45441;-71
2022/01/15 05:06:16;;;;;;;;;106.50;76.75;;;;;2.05;83.91;102596.63;5062819;28;45273;-71
2022/01/15 05:08:44;;;;;;;;;95.00;71.00;;;;;2.04;83.61;102597.47;5055437;28;46177;-71
2022/01/15 05:11:14;;;;;;;;;104.50;76.00;;;;;2.03;83.86;102599.16;5058119;28;45529;-71
2022/01/15 05:13:39;;;;;;;;;98.75;75.00;;;;;2.02;84.00;102593.94;5053652;28;45337;-71
2022/01/15 05:16:05;;;;;;;;;100.25;74.25;;;;;2.02;84.13;102593.94;5055103;27;45498;-71
2022/01/15 05:18:30;;;;;;;;;106.25;77.25;;;;;2.01;83.63;102598.25;5054795;28;45942;-71
2022/01/15 05:20:57;;;;;;;;;99.75;76.00;;;;;2.00;83.75;102590.44;5053083;28;50639;-71
2022/01/15 05:23:22;;;;;;;;;89.25;72.00;;;;;1.98;83.69;102590.38;5065778;28;45316;-71
2022/01/15 05:25:47;;;;;;;;;96.75;73.00;;;;;1.96;84.03;102588.63;5058980;28;45301;-71
2022/01/15 05:28:13;;;;;;;;;104.33;73.67;;;;;1.95;84.13;102585.16;5054459;28;45331;-71
2022/01/15 05:30:38;;;;;;;;;96.00;73.75;;;;;1.95;83.87;102589.47;5059546;28;45329;-71
2022/01/15 05:33:04;;;;;;;;;106.33;75.00;;;;;1.94;83.99;102579.94;5051815;28;45446;-71
2022/01/15 05:35:29;;;;;;;;;99.50;74.25;;;;;1.93;84.36;102593.72;5060163;28;45511;-71
2022/01/15 05:37:56;;;;;;;;;94.33;72.00;;;;;1.92;83.82;102598.03;5067329;28;46171;-71
2022/01/15 05:40:22;;;;;;;;;99.00;72.75;;;;;1.88;84.03;102590.16;5052960;28;45744;-71
2022/01/15 05:42:47;;;;;;;;;106.00;77.75;;;;;1.90;84.00;102597.13;5053166;28;45553;-71
2022/01/15 05:45:13;;;;;;;;;103.33;73.00;;;;;1.91;84.07;102598.00;5057190;28;45551;-71
2022/01/15 05:47:39;;;;;;;;;89.00;68.00;;;;;1.85;84.31;102595.28;5061812;28;45509;-71
2022/01/15 05:50:05;;;;;;;;;97.00;72.50;;;;;1.91;83.76;102596.28;5055285;28;45276;-71
2022/01/15 05:52:31;;;;;;;;;98.50;74.75;;;;;1.91;84.04;102598.00;5061500;28;45481;-71
2022/01/15 05:54:56;;;;;;;;;102.00;75.00;;;;;1.86;84.08;102592.72;5056197;28;45562;-71
2022/01/15 05:57:22;;;;;;;;;103.50;76.00;;;;;1.86;84.14;102594.44;5037771;28;46285;-71
2022/01/15 05:59:51;;;;;;;;;96.25;74.75;;;;;1.88;83.86;102601.44;5053324;28;45501;-71
2022/01/15 06:02:16;;;;;;;;;100.25;72.75;;;;;1.88;84.33;102597.94;5056127;28;45397;-71
2022/01/15 06:04:42;;;;;;;;;110.00;79.00;;;;;1.88;84.08;102601.44;5058091;28;45545;-71
2022/01/15 06:07:07;;;;;;;;;99.25;77.25;;;;;1.88;84.17;102603.13;5049791;28;46008;-72
2022/01/15 06:09:32;;;;;;;;;100.33;74.67;;;;;1.89;84.42;102605.75;5050966;28;59884;-71
2022/01/15 06:12:00;;;;;;;;;101.33;76.00;;;;;1.89;84.47;102600.59;5051798;28;45530;-71
2022/01/15 06:14:25;;;;;;;;;104.00;76.00;;;;;1.86;84.60;102600.50;5051594;28;45474;-71
2022/01/15 06:16:51;;;;;;;;;101.00;76.75;;;;;1.85;84.39;102609.13;5050038;28;45492;-70
2022/01/15 06:19:16;;;;;;;;;105.67;78.33;;;;;1.85;84.46;102610.84;5051898;28;45422;-71
2022/01/15 06:21:41;;;;;;;;;93.00;69.33;;;;;1.83;84.56;102614.28;5040698;28;45738;-71
2022/01/15 06:24:07;;;;;;;;;101.33;76.33;;;;;1.81;84.32;102608.16;5059624;28;51444;-71
2022/01/15 06:26:32;;;;;;;;;97.75;75.25;;;;;1.81;84.42;102602.97;5051547;28;46267;-71
2022/01/15 06:28:57;;;;;;;;;101.00;76.00;;;;;1.81;84.32;102602.97;5053453;28;45367;-71
2022/01/15 06:31:23;;;;;;;;;104.33;77.33;;;;;1.77;84.27;102595.97;5053066;28;45335;-71
2022/01/15 06:33:48;;;;;;;;;108.00;75.67;;;;;1.80;84.04;102606.41;5052273;28;45419;-71
2022/01/15 06:36:13;;;;;;;;;102.67;76.33;;;;;1.77;84.28;102605.47;5054920;28;45449;-71
2022/01/15 06:38:39;;;;;;;;;102.67;71.67;;;;;1.75;84.63;102605.44;5052201;28;60567;-71
2022/01/15 06:41:04;;;;;;;;;103.50;76.75;;;;;1.73;84.75;102599.34;5052815;28;45382;-71
2022/01/15 06:43:29;;;;;;;;;105.00;78.33;;;;;1.72;84.43;102595.03;5052600;28;45332;-71
2022/01/15 06:45:55;;;;;;;;;105.33;78.67;;;;;1.72;84.83;102592.44;5055043;28;45669;-70
2022/01/15 06:48:20;;;;;;;;;102.00;75.00;;;;;1.72;84.78;102594.13;5052370;28;45831;-70
2022/01/15 06:50:45;;;;;;;;;102.67;76.00;;;;;1.70;84.89;102588.03;5052991;28;45626;-71
2022/01/15 06:53:11;;;;;;;;;96.75;70.00;;;;;1.65;84.74;102585.31;5053802;28;45473;-71
2022/01/15 06:55:36;;;;;;;;;89.25;66.50;;;;;1.69;85.28;102586.28;5052060;28;45447;-71
2022/01/15 06:58:02;;;;;;;;;92.00;69.50;;;;;1.73;85.00;102589.00;5048873;28;45391;-71
2022/01/15 07:00:27;;;;;;;;;92.00;70.67;;;;;1.74;85.04;102587.25;5044225;28;45309;-71
2022/01/15 07:02:52;;;;;;;;;98.75;70.75;;;;;1.72;84.69;102584.66;5049599;28;45327;-71
2022/01/15 07:05:20;;;;;;;;;89.00;69.75;;;;;1.73;84.80;102583.81;5059189;28;47322;-71
2022/01/15 07:07:46;;;;;;;;;95.25;68.00;;;;;1.73;84.42;102581.22;5050613;28;45295;-70
2022/01/15 07:10:13;;;;;;;;;97.50;71.25;;;;;1.73;84.71;102573.44;5053056;28;46149;-71
2022/01/15 07:12:38;;;;;;;;;94.00;69.25;;;;;1.73;84.66;102564.78;5049483;28;45542;-71
2022/01/15 07:15:04;;;;;;;;;85.25;66.00;;;;;1.70;84.74;102562.97;5045443;28;47588;-71
2022/01/15 07:17:31;;;;;;;;;89.25;66.75;;;;;1.69;84.31;102561.25;5051400;28;45395;-71
2022/01/15 07:19:56;;;;;;;;;84.00;65.25;;;;;1.68;84.53;102556.91;5046120;28;45494;-71
2022/01/15 07:22:22;;;;;;;;;95.25;66.00;;;;;1.66;84.29;102552.50;5064585;28;47765;-71
2022/01/15 07:24:47;;;;;;;;;79.33;64.33;;;;;1.69;84.64;102557.78;5054273;28;45499;-71
2022/01/15 07:27:12;;;;;;;;;88.00;65.33;;;;;1.67;83.96;102555.16;5052556;28;47628;-71
2022/01/15 07:29:39;;;;;;;;;88.67;66.33;;;;;1.67;84.29;102562.03;5043744;28;45466;-71
2022/01/15 07:32:05;;;;;;;;;91.75;67.00;;;;;1.67;84.35;102562.03;5054068;28;45478;-71
2022/01/15 07:34:31;;;;;;;;;87.50;65.00;;;;;1.67;84.78;102564.63;5054420;28;47458;-71
2022/01/15 07:36:57;;;;;;;;;89.25;69.75;;;;;1.66;84.63;102561.16;5055504;28;45368;-71
2022/01/15 07:39:24;;;;;;;;;92.25;68.25;;;;;1.67;84.83;102562.94;5053233;28;45770;-71
2022/01/15 07:41:50;;;;;;;;;86.25;68.25;;;;;1.68;84.38;102558.63;5047102;28;45503;-71
2022/01/15 07:44:15;;;;;;;;;92.25;66.00;;;;;1.68;84.69;102562.09;5054323;28;46068;-71
2022/01/15 07:46:40;;;;;;;;;88.25;65.00;;;;;1.71;84.86;102559.53;5056666;28;45776;-71
2022/01/15 07:49:06;;;;;;;;;82.67;66.67;;;;;1.73;84.85;102560.47;5053493;28;45457;-71
2022/01/15 07:51:31;;;;;;;;;90.67;67.00;;;;;1.75;84.88;102552.72;5054500;28;45449;-72
2022/01/15 07:53:56;;;;;;;;;95.00;70.50;;;;;1.67;84.70;102539.59;5052121;28;46230;-72
2022/01/15 07:56:22;;;;;;;;;92.75;69.50;;;;;1.80;84.95;102553.69;5054646;28;45296;-72
2022/01/15 07:58:47;;;;;;;;;92.33;67.33;;;;;1.82;84.83;102558.06;5052705;28;49982;-71
2022/01/15 08:01:13;;;;;;;;;88.25;66.25;;;;;1.86;84.51;102552.97;5050740;28;46721;-71
2022/01/15 08:03:39;;;;;;;;;87.00;67.25;;;;;1.91;84.31;102551.34;5054986;28;47010;-73
2022/01/15 08:06:04;;;;;;;;;101.50;73.75;;;;;1.93;84.73;102544.47;5055754;28;47336;-72
2022/01/15 08:08:30;;;;;;;;;93.50;69.00;;;;;2.03;84.86;102555.06;5061294;28;45414;-73
2022/01/15 08:10:55;;;;;;;;;94.00;67.00;;;;;2.12;84.68;102561.31;5062353;28;45228;-71
2022/01/15 08:13:20;;;;;;;;;95.00;69.33;;;;;2.15;84.42;102549.28;5062546;28;45478;-71
2022/01/15 08:15:46;;;;;;;;;95.33;71.33;;;;;2.23;84.52;102555.50;5055114;28;46927;-71
2022/01/15 08:18:11;;;;;;;;;92.33;69.00;;;;;2.31;84.85;102542.69;5061224;28;45368;-71
2022/01/15 08:20:36;;;;;;;;;87.67;66.67;;;;;2.32;84.61;102534.94;5053858;28;45375;-71
2022/01/15 08:23:02;;;;;;;;;96.50;66.50;;;;;2.48;84.21;102535.22;5061497;28;53672;-71
2022/01/15 08:25:27;;;;;;;;;92.75;70.25;;;;;2.55;84.06;102532.75;5055693;28;45531;-71
2022/01/15 08:27:53;;;;;;;;;99.50;71.00;;;;;2.65;84.34;102539.00;5054562;28;45519;-71
2022/01/15 08:30:19;;;;;;;;;98.00;74.25;;;;;2.76;84.05;102531.41;5053934;28;45414;-70
2022/01/15 08:32:45;;;;;;;;;93.75;70.75;;;;;2.85;84.06;102531.59;5057643;28;45382;-70
2022/01/15 08:35:11;;;;;;;;;92.50;72.25;;;;;2.93;84.01;102530.00;5054083;28;45629;-71
2022/01/15 08:37:38;;;;;;;;;92.75;68.50;;;;;3.02;84.00;102524.94;5060285;28;45434;-71
2022/01/15 08:40:05;;;;;;;;;90.00;69.50;;;;;3.10;83.84;102518.16;5035417;28;45624;-71
2022/01/15 08:42:31;;;;;;;;;100.50;73.25;;;;;3.27;83.50;102531.41;5054581;28;46214;-71
2022/01/15 08:44:56;;;;;;;;;95.75;68.50;;;;;3.54;83.95;102530.09;5058641;28;45521;-72
2022/01/15 08:47:21;;;;;;;;;92.00;69.00;;;;;4.33;83.87;102530.25;5054436;28;45494;-73
2022/01/15 08:49:47;;;;;;;;;88.25;66.00;;;;;5.19;82.85;102532.00;5055768;28;45582;-72
2022/01/15 08:52:12;;;;;;;;;96.50;71.25;;;;;5.79;81.51;102520.22;5053655;28;46520;-71
2022/01/15 08:54:38;;;;;;;;;94.75;70.75;;;;;6.79;80.96;102538.03;5053348;28;45469;-70
2022/01/15 08:57:03;;;;;;;;;102.75;76.75;;;;;8.01;79.57;102533.53;5053676;28;45529;-73
2022/01/15 08:59:28;;;;;;;;;96.50;71.75;;;;;9.24;77.30;102523.19;5052379;28;45502;-71
2022/01/15 09:01:55;;;;;;;;;95.50;70.75;;;;;10.54;75.25;102519.09;5054075;28;45624;-71
2022/01/15 09:04:21;;;;;;;;;97.00;69.75;;;;;11.70;72.13;102519.81;5060518;28;45521;-71
2022/01/15 09:06:46;;;;;;;;;98.00;74.50;;;;;12.77;70.13;102526.31;5059077;27;45526;-71
2022/01/15 09:09:12;;;;;;;;;100.25;80.75;;;;;13.67;68.05;102515.25;5053385;28;45477;-71
2022/01/15 09:11:37;;;;;;;;;87.25;64.50;;;;;14.62;66.37;102517.78;5049688;28;46050;-71
2022/01/15 09:14:03;;;;;;;;;92.33;71.33;;;;;15.23;64.24;102489.28;5053706;28;50346;-71
2022/01/15 09:16:28;;;;;;;;;93.50;76.75;;;;;16.12;62.65;102507.28;5055831;28;45428;-70
2022/01/15 09:18:56;;;;;;;;;92.00;74.50;;;;;16.92;61.67;102527.16;5058302;27;45654;-71
2022/01/15 09:21:21;;;;;;;;;95.50;79.50;;;;;17.45;59.22;102534.66;5055187;28;47273;-71
2022/01/15 09:23:47;;;;;;;;;90.50;76.00;;;;;17.40;58.32;102514.53;5052002;28;45510;-72
2022/01/15 09:26:20;;;;;;;;;93.00;78.00;;;;;17.53;57.42;102533.44;5053460;28;45644;-72
2022/01/15 09:31:30;;;;;;;;;94.25;79.75;;;;;17.75;56.29;102513.00;5059813;28;45800;-71
2022/01/15 09:33:56;;;;;;;;;206.75;169.75;;;;;18.27;55.48;102534.56;5052928;28;45739;-72
2022/01/15 09:36:21;;;;;;;;;99.50;81.50;;;;;18.27;54.26;102521.28;5059197;28;45558;-72
2022/01/15 09:38:46;;;;;;;;;102.67;81.33;;;;;18.69;54.38;102517.53;5051573;28;45474;-72
2022/01/15 09:41:13;;;;;;;;;90.25;77.25;;;;;19.41;53.24;102513.88;5051867;28;46141;-72
2022/01/15 09:43:39;;;;;;;;;94.50;81.00;;;;;20.17;52.29;102532.97;5056786;28;45956;-72
2022/01/15 09:46:06;;;;;;;;;91.75;77.50;;;;;20.71;50.78;102529.03;5061805;28;45453;-72
2022/01/15 09:48:32;;;;;;;;;96.00;80.75;;;;;21.18;50.65;102527.22;5059114;28;45450;-72
2022/01/15 09:50:57;;;;;;;;;97.00;79.25;;;;;21.65;48.94;102528.88;5054199;28;46173;-72
2022/01/15 09:53:23;;;;;;;;;92.00;82.75;;;;;21.96;48.39;102536.75;5068514;27;45451;-73
2022/01/15 09:55:48;;;;;;;;;93.75;79.75;;;;;22.18;47.42;102508.63;5062753;28;45510;-72
2022/01/15 09:58:16;;;;;;;;;89.25;79.25;;;;;22.56;46.98;102525.78;5053116;28;45436;-73
2022/01/15 10:00:42;;;;;;;;;96.50;82.75;;;;;22.76;46.53;102526.28;5051138;28;46176;-74
2022/01/15 10:03:07;;;;;;;;;96.75;83.25;;;;;22.70;45.79;102516.81;5058101;28;45529;-73
2022/01/15 10:05:32;;;;;;;;;94.50;82.75;;;;;22.60;44.96;102521.06;5061112;28;45590;-75
2022/01/15 10:08:04;;;;;;;;;95.25;88.00;;;;;22.29;44.75;102519.53;5054916;28;45344;-75
2022/01/15 10:10:32;;;;;;;;;83.50;68.00;;;;;21.61;44.72;102520.19;5055062;28;46693;-76
2022/01/15 10:13:20;;;;;;;;;91.75;81.50;;;;;20.30;45.38;102529.53;5056526;27;45625;-73
2022/01/15 10:15:59;;;;;;;;;82.00;66.25;;;;;19.14;46.11;102518.81;5053448;28;45425;-72
2022/01/15 10:18:33;;;;;;;;;96.75;80.50;;;;;18.16;46.91;102524.41;5055394;28;45493;-73
2022/01/15 10:21:18;;;;;;;;;85.50;71.00;;;;;17.24;47.46;102527.59;5055012;28;47387;-74
2022/01/15 10:23:55;;;;;;;;;88.25;77.75;;;;;16.52;48.65;102527.84;5062295;28;45513;-72
2022/01/15 10:26:25;;;;;;;;;82.75;70.25;;;;;15.89;49.51;102522.28;5058473;27;45358;-72
2022/01/15 10:28:54;;;;;;;;;86.75;73.00;;;;;15.32;50.20;102534.00;5073012;28;45428;-73
2022/01/15 10:31:22;;;;;;;;;86.50;69.00;;;;;14.93;50.09;102537.97;5055889;28;47098;-72
2022/01/15 10:33:47;;;;;;;;;88.25;67.75;;;;;14.50;50.29;102524.31;5062129;28;45543;-71
2022/01/15 10:36:25;;;;;;;;;231.25;185.00;;;;;14.08;51.54;102514.06;5061019;28;45506;-71
2022/01/15 10:38:51;;;;;;;;;87.50;71.00;;;;;13.80;52.29;102518.44;5057438;28;45379;-70
2022/01/15 10:41:36;;;;;;;;;90.25;74.50;;;;;13.51;52.83;102500.72;5063483;28;46089;-69
2022/01/15 10:44:23;;;;;;;;;88.50;65.00;;;;;13.28;53.04;102510.13;5060145;28;45517;-70
2022/01/15 10:46:48;;;;;;;;;85.00;68.00;;;;;12.99;53.07;102504.69;5071125;28;45378;-71
2022/01/15 10:49:22;;;;;;;;;80.75;61.00;;;;;12.67;53.34;102497.53;5055662;28;45462;-71
2022/01/15 10:52:13;;;;;;;;;77.25;59.50;;;;;12.45;53.56;102503.31;5057691;28;45509;-70
2022/01/15 10:55:00;;;;;;;;;81.75;60.00;;;;;12.18;54.08;102498.66;5058624;28;45985;-70
2022/01/15 10:57:30;;;;;;;;;78.50;58.75;;;;;11.94;54.44;102481.59;5054428;28;45478;-68
2022/01/15 11:00:04;;;;;;;;;82.50;62.50;;;;;11.83;54.88;102492.34;5050845;28;45569;-70
2022/01/15 11:02:29;;;;;;;;;82.00;60.00;;;;;11.72;55.03;102496.94;5060448;28;45867;-70
2022/01/15 11:04:55;;;;;;;;;88.75;62.75;;;;;11.53;55.58;102490.28;5059879;28;45323;-71
2022/01/15 11:07:20;;;;;;;;;85.50;64.00;;;;;11.41;56.05;102494.00;5063792;28;45530;-70
2022/01/15 11:09:50;;;;;;;;;85.50;65.25;;;;;11.24;56.17;102489.06;5060109;28;45340;-71
2022/01/15 11:12:16;;;;;;;;;87.25;63.25;;;;;11.08;56.34;102485.81;5055236;28;46173;-70
2022/01/15 11:14:42;;;;;;;;;81.75;62.25;;;;;11.04;56.74;102489.41;5053737;28;45463;-70
2022/01/15 11:17:07;;;;;;;;;74.33;55.67;;;;;10.86;56.63;102487.09;5062165;28;45232;-69
2022/01/15 11:19:35;;;;;;;;;81.75;61.75;;;;;10.74;57.14;102482.00;5046734;28;45537;-71
2022/01/15 11:22:02;;;;;;;;;89.50;65.50;;;;;10.67;57.58;102478.59;5053978;28;46195;-70
2022/01/15 11:24:28;;;;;;;;;89.75;67.75;;;;;10.56;57.61;102476.13;5054817;28;45623;-70